Terminal Aerodrome Forecast
Issued by NWS Albany, NY

Home | Current Version | Previous Version | Text Only | Print | Product List | Glossary On
Versions: 1 2 3 4 5 6 7 8 9 10 11 12 13 14 15 16 17 18 19 20 21 22 23 24 25 26 27 28 29 30 31 32 33
000
FTUS41 KALY 241900 AAB
TAFALB
TAF AMD
KALB 241957Z 2420/2518 02008KT P6SM BKN006 OVC035
      TEMPO 2420/2422 SCT003 BKN035
     FM242200 34008KT P6SM SCT035 BKN080
     FM250300 31005KT P6SM SCT080
     FM251400 25008KT P6SM SCT060 SCT200=

USA.gov is the U.S. government's official web portal to all federal, state and local government web resources and services.